Time;durP1;ratioP1;P1;durP2;ratioP2;P2;SDS_P1;SDS_P2;PMS_P1;PMS_P2;Temp;Humidity;BMP_temperature;BMP_pressure;BME280_temperature;BME280_humidity;BME280_pressure;Samples;Min_cycle;Max_cycle;Signal;HPM_P1;HPM_P2
2023/02/20 00:00:35;;;;;;;15.60;6.82;;;;;;;;;;5054262;28;20222;-82
2023/02/20 00:03:02;;;;;;;13.32;6.38;;;;;;;;;;5056193;28;20044;-82
2023/02/20 00:05:28;;;;;;;13.40;7.30;;;;;;;;;;5060935;28;20391;-83
2023/02/20 00:07:55;;;;;;;15.27;6.72;;;;;;;;;;5057397;28;20049;-82
2023/02/20 00:10:23;;;;;;;12.75;7.15;;;;;;;;;;5038515;28;20448;-82
2023/02/20 00:12:49;;;;;;;12.85;6.75;;;;;;;;;;5056497;28;20073;-83
2023/02/20 00:15:20;;;;;;;12.05;6.43;;;;;;;;;;5057995;28;20497;-83
2023/02/20 00:17:47;;;;;;;11.75;6.40;;;;;;;;;;5057376;28;20048;-82
2023/02/20 00:20:16;;;;;;;13.55;6.93;;;;;;;;;;5040940;28;20489;-83
2023/02/20 00:22:43;;;;;;;13.25;6.57;;;;;;;;;;5061846;28;20099;-82
2023/02/20 00:25:09;;;;;;;13.55;7.47;;;;;;;;;;5055086;28;20059;-81
2023/02/20 00:27:38;;;;;;;13.98;7.88;;;;;;;;;;5038083;28;20042;-84
2023/02/20 00:30:06;;;;;;;14.15;8.43;;;;;;;;;;5039678;28;20165;-83
2023/02/20 00:32:32;;;;;;;19.23;8.00;;;;;;;;;;5036938;28;20116;-82
2023/02/20 00:34:59;;;;;;;15.25;8.10;;;;;;;;;;5034487;28;20548;-82
2023/02/20 00:37:25;;;;;;;13.75;7.90;;;;;;;;;;5032860;28;20561;-83
2023/02/20 00:39:52;;;;;;;15.52;7.97;;;;;;;;;;5033477;28;20105;-82
2023/02/20 00:42:18;;;;;;;14.63;7.55;;;;;;;;;;5034620;28;20053;-82
2023/02/20 00:44:44;;;;;;;14.15;7.72;;;;;;;;;;5033742;28;20240;-81
2023/02/20 00:47:11;;;;;;;14.00;7.63;;;;;;;;;;5032676;28;20057;-83
2023/02/20 00:49:37;;;;;;;13.73;7.35;;;;;;;;;;5033053;28;20057;-83
2023/02/20 00:52:03;;;;;;;14.60;7.53;;;;;;;;;;5032688;28;20136;-82
2023/02/20 00:54:30;;;;;;;11.68;6.95;;;;;;;;;;5032092;28;20132;-82
2023/02/20 00:56:56;;;;;;;13.15;6.68;;;;;;;;;;5014851;28;20041;-82
2023/02/20 00:59:23;;;;;;;11.73;6.72;;;;;;;;;;5033750;28;20140;-83
2023/02/20 01:01:49;;;;;;;12.25;6.70;;;;;;;;;;5033130;28;20309;-82
2023/02/20 01:04:16;;;;;;;13.77;7.45;;;;;;;;;;5035518;28;20049;-82
2023/02/20 01:06:43;;;;;;;13.80;7.05;;;;;;;;;;5036439;28;20148;-82
2023/02/20 01:09:10;;;;;;;11.70;6.50;;;;;;;;;;5018416;28;20119;-83
2023/02/20 01:11:37;;;;;;;13.57;6.88;;;;;;;;;;5038887;28;20100;-83
2023/02/20 01:14:03;;;;;;;13.68;6.45;;;;;;;;;;5037468;28;20440;-83
2023/02/20 01:16:30;;;;;;;12.65;6.30;;;;;;;;;;5036519;28;20088;-84
2023/02/20 01:18:56;;;;;;;12.02;6.18;;;;;;;;;;5035831;28;20056;-84
2023/02/20 01:21:23;;;;;;;12.80;6.57;;;;;;;;;;5036181;28;20045;-82
2023/02/20 01:23:49;;;;;;;13.48;6.50;;;;;;;;;;5035925;28;20045;-83
2023/02/20 01:26:16;;;;;;;13.18;6.60;;;;;;;;;;5041292;28;20047;-82
2023/02/20 01:28:44;;;;;;;13.82;7.13;;;;;;;;;;5056735;28;20406;-83
2023/02/20 01:31:10;;;;;;;13.82;6.88;;;;;;;;;;5057224;28;20079;-83
2023/02/20 01:33:39;;;;;;;15.85;7.22;;;;;;;;;;5055872;28;20053;-84
2023/02/20 01:36:06;;;;;;;12.52;6.63;;;;;;;;;;5056275;28;20052;-83
2023/02/20 01:38:33;;;;;;;12.52;6.40;;;;;;;;;;5038087;28;20049;-82
2023/02/20 01:41:00;;;;;;;12.02;5.65;;;;;;;;;;5055591;28;20045;-83
2023/02/20 01:43:26;;;;;;;13.00;5.57;;;;;;;;;;5057598;28;20069;-83
2023/02/20 01:45:53;;;;;;;12.30;6.55;;;;;;;;;;5057464;28;20056;-83
2023/02/20 01:48:23;;;;;;;14.35;6.00;;;;;;;;;;5054672;28;20229;-83
2023/02/20 01:50:54;;;;;;;13.10;5.88;;;;;;;;;;5019709;28;20118;-84
2023/02/20 01:53:22;;;;;;;16.95;6.50;;;;;;;;;;5039654;28;20045;-84
2023/02/20 01:55:57;;;;;;;13.45;5.50;;;;;;;;;;5021683;28;20179;-84
2023/02/20 01:58:29;;;;;;;9.80;5.20;;;;;;;;;;5045264;28;20054;-84
2023/02/20 02:00:56;;;;;;;11.50;4.88;;;;;;;;;;5023154;28;20107;-83
2023/02/20 02:03:25;;;;;;;11.15;4.63;;;;;;;;;;5040000;28;20053;-84
2023/02/20 02:05:57;;;;;;;11.77;4.43;;;;;;;;;;5039735;28;20075;-82
2023/02/20 02:08:24;;;;;;;7.80;4.05;;;;;;;;;;5018120;28;20049;-84
2023/02/20 02:11:09;;;;;;;7.35;4.15;;;;;;;;;;5041857;28;20087;-83
2023/02/20 02:13:37;;;;;;;10.98;5.05;;;;;;;;;;5037774;28;20063;-84
2023/02/20 02:16:06;;;;;;;9.38;5.30;;;;;;;;;;5034239;28;20053;-83
2023/02/20 02:18:47;;;;;;;14.82;7.97;;;;;;;;;;5033416;28;20053;-83
2023/02/20 02:21:16;;;;;;;14.95;8.48;;;;;;;;;;5035088;28;20053;-83
2023/02/20 02:24:08;;;;;;;17.83;9.50;;;;;;;;;;5033862;28;20147;-83
2023/02/20 02:26:38;;;;;;;20.98;10.63;;;;;;;;;;5040747;28;20053;-83
2023/02/20 02:29:27;;;;;;;19.92;10.07;;;;;;;;;;5054629;28;20123;-82
2023/02/20 02:32:04;;;;;;;24.27;11.20;;;;;;;;;;5030999;28;20215;-84
2023/02/20 02:34:30;;;;;;;24.35;11.10;;;;;;;;;;5052877;28;20441;-81
2023/02/20 02:37:17;;;;;;;23.27;11.50;;;;;;;;;;5052765;28;20056;-81
2023/02/20 02:39:50;;;;;;;23.60;11.13;;;;;;;;;;5034898;28;20045;-81
2023/02/20 02:42:31;;;;;;;25.75;12.07;;;;;;;;;;5053896;28;20076;-81
2023/02/20 02:45:06;;;;;;;25.17;12.20;;;;;;;;;;5054036;28;20075;-81
2023/02/20 02:47:52;;;;;;;24.60;12.10;;;;;;;;;;5050200;28;20060;-82
2023/02/20 02:50:31;;;;;;;24.08;11.48;;;;;;;;;;5054493;28;20041;-81
2023/02/20 02:52:58;;;;;;;25.08;11.73;;;;;;;;;;5054323;28;20128;-83
2023/02/20 02:55:28;;;;;;;26.65;12.57;;;;;;;;;;5055205;28;20045;-82
2023/02/20 02:57:55;;;;;;;26.80;12.93;;;;;;;;;;5056977;28;20060;-83
2023/02/20 03:00:23;;;;;;;27.40;11.93;;;;;;;;;;5057293;28;20051;-83
2023/02/20 03:02:50;;;;;;;27.30;12.93;;;;;;;;;;5058508;28;20513;-83
2023/02/20 03:05:19;;;;;;;28.63;13.07;;;;;;;;;;5043664;28;20049;-82
2023/02/20 03:07:47;;;;;;;28.25;12.88;;;;;;;;;;5052984;28;20047;-82
2023/02/20 03:10:19;;;;;;;26.83;12.20;;;;;;;;;;5053372;28;20045;-82
2023/02/20 03:12:49;;;;;;;23.33;12.18;;;;;;;;;;5055317;28;20102;-83
2023/02/20 03:15:34;;;;;;;27.23;12.18;;;;;;;;;;5056260;28;20517;-82
2023/02/20 03:18:04;;;;;;;29.58;11.93;;;;;;;;;;5054979;28;20076;-82
2023/02/20 03:20:31;;;;;;;28.95;12.90;;;;;;;;;;5057672;28;20049;-82
2023/02/20 03:22:59;;;;;;;30.20;12.55;;;;;;;;;;5056085;28;20069;-84
2023/02/20 03:25:54;;;;;;;26.15;10.93;;;;;;;;;;5055952;28;20478;-83
2023/02/20 03:28:27;;;;;;;27.07;11.77;;;;;;;;;;5016392;28;20108;-83
2023/02/20 03:30:53;;;;;;;31.92;12.25;;;;;;;;;;5020068;28;20059;-82
2023/02/20 03:44:52;;;;;;;28.65;10.80;;;;;;;;;;5028924;28;20042;-81
2023/02/20 03:47:21;;;;;;;25.13;10.65;;;;;;;;;;5007982;28;20042;-82
2023/02/20 03:49:48;;;;;;;22.70;9.85;;;;;;;;;;5028696;28;20100;-83
2023/02/20 03:52:16;;;;;;;26.05;10.23;;;;;;;;;;5028681;28;20106;-82
2023/02/20 03:54:42;;;;;;;21.85;9.80;;;;;;;;;;5028137;28;20054;-82
2023/02/20 03:57:11;;;;;;;27.95;10.90;;;;;;;;;;4999210;28;20524;-82
2023/02/20 03:59:47;;;;;;;21.20;9.23;;;;;;;;;;5015719;28;20081;-81
2023/02/20 04:02:21;;;;;;;22.02;9.13;;;;;;;;;;4997939;28;20050;-82
2023/02/20 04:04:49;;;;;;;22.38;9.13;;;;;;;;;;5015158;28;20136;-83
2023/02/20 04:07:20;;;;;;;23.40;9.98;;;;;;;;;;5014421;28;20107;-82
2023/02/20 04:09:46;;;;;;;22.52;8.80;;;;;;;;;;5014556;28;20046;-81
2023/02/20 04:12:15;;;;;;;23.15;9.27;;;;;;;;;;5015796;28;20450;-81
2023/02/20 04:14:45;;;;;;;23.00;8.82;;;;;;;;;;5015044;28;20058;-82
2023/02/20 04:17:13;;;;;;;22.30;8.88;;;;;;;;;;5014098;28;20052;-81
2023/02/20 04:19:40;;;;;;;22.13;7.90;;;;;;;;;;4996590;28;20056;-82
2023/02/20 04:22:09;;;;;;;21.65;7.80;;;;;;;;;;5014509;28;20065;-81
2023/02/20 04:24:39;;;;;;;19.10;7.90;;;;;;;;;;5013665;28;20050;-80
2023/02/20 04:27:06;;;;;;;20.05;8.25;;;;;;;;;;5037120;28;20431;-82
2023/02/20 04:29:32;;;;;;;19.65;8.48;;;;;;;;;;5053490;28;20512;-82
2023/02/20 04:31:59;;;;;;;17.40;8.18;;;;;;;;;;5057004;28;20082;-82
2023/02/20 04:34:25;;;;;;;21.77;7.60;;;;;;;;;;5060259;28;20056;-82
2023/02/20 04:36:56;;;;;;;20.08;7.68;;;;;;;;;;5056164;28;20487;-81
2023/02/20 04:39:23;;;;;;;17.08;7.30;;;;;;;;;;5056429;28;20049;-82
2023/02/20 04:41:49;;;;;;;18.15;7.22;;;;;;;;;;5057712;28;20045;-81
2023/02/20 04:44:31;;;;;;;17.13;7.45;;;;;;;;;;5057472;28;20044;-83
2023/02/20 04:46:58;;;;;;;15.38;7.30;;;;;;;;;;5054619;28;20132;-83
2023/02/20 04:49:24;;;;;;;18.55;6.30;;;;;;;;;;5057033;28;20123;-82
2023/02/20 04:51:51;;;;;;;15.90;6.10;;;;;;;;;;5057455;28;20160;-81
2023/02/20 04:54:17;;;;;;;14.68;6.40;;;;;;;;;;5057214;28;20056;-80
2023/02/20 04:56:44;;;;;;;15.90;6.28;;;;;;;;;;5056553;28;20159;-81
2023/02/20 04:59:10;;;;;;;13.63;6.25;;;;;;;;;;5057422;28;20049;-81
2023/02/20 05:01:37;;;;;;;14.10;6.03;;;;;;;;;;5057922;28;20040;-81
2023/02/20 05:04:03;;;;;;;14.13;5.95;;;;;;;;;;5057362;28;20147;-81
2023/02/20 05:06:30;;;;;;;15.48;6.30;;;;;;;;;;5057262;28;20077;-82
2023/02/20 05:08:56;;;;;;;16.15;6.28;;;;;;;;;;5040654;28;20395;-81
2023/02/20 05:11:23;;;;;;;15.27;6.18;;;;;;;;;;5058809;28;20120;-82
2023/02/20 05:13:49;;;;;;;14.38;6.05;;;;;;;;;;5059398;28;20052;-82
2023/02/20 05:16:16;;;;;;;12.73;5.95;;;;;;;;;;5057541;28;20052;-81
2023/02/20 05:18:42;;;;;;;15.15;5.85;;;;;;;;;;5055204;28;20153;-82
2023/02/20 05:23:57;;;;;;;13.82;6.22;;;;;;;;;;5056436;28;20049;-82
2023/02/20 05:26:23;;;;;;;14.02;6.05;;;;;;;;;;5048570;28;20083;-81
2023/02/20 05:28:50;;;;;;;13.07;6.32;;;;;;;;;;5037878;28;20072;-82
2023/02/20 05:31:16;;;;;;;16.17;6.85;;;;;;;;;;5037364;28;20101;-82
2023/02/20 05:33:43;;;;;;;16.95;6.90;;;;;;;;;;5036077;28;20053;-81
2023/02/20 05:36:09;;;;;;;14.80;6.68;;;;;;;;;;5036541;28;20687;-79
2023/02/20 05:38:40;;;;;;;15.23;7.13;;;;;;;;;;5035558;28;20103;-80
2023/02/20 05:41:07;;;;;;;13.98;6.30;;;;;;;;;;5017825;28;20049;-81
2023/02/20 05:43:33;;;;;;;15.50;7.07;;;;;;;;;;5037048;28;20509;-82
2023/02/20 05:45:59;;;;;;;14.38;6.43;;;;;;;;;;5036246;28;20107;-83
2023/02/20 05:48:26;;;;;;;15.45;6.93;;;;;;;;;;5015032;28;20045;-83
2023/02/20 05:50:53;;;;;;;15.10;7.15;;;;;;;;;;5036475;28;20061;-83
2023/02/20 05:53:20;;;;;;;15.40;7.07;;;;;;;;;;5036185;28;20049;-81
2023/02/20 05:55:46;;;;;;;16.33;7.07;;;;;;;;;;5018460;28;20057;-81
2023/02/20 05:58:12;;;;;;;14.63;7.18;;;;;;;;;;5034912;28;20053;-82
2023/02/20 06:00:39;;;;;;;17.30;6.75;;;;;;;;;;5035721;28;20116;-82
2023/02/20 06:03:06;;;;;;;15.80;7.43;;;;;;;;;;5035209;28;20053;-82
2023/02/20 06:05:33;;;;;;;16.52;7.35;;;;;;;;;;5034307;28;20161;-81
2023/02/20 06:07:59;;;;;;;16.30;7.28;;;;;;;;;;5034642;28;20493;-82
2023/02/20 06:10:25;;;;;;;17.75;7.65;;;;;;;;;;5016967;28;20046;-83
2023/02/20 06:12:52;;;;;;;14.95;6.65;;;;;;;;;;5036183;28;20050;-82
2023/02/20 06:15:18;;;;;;;19.83;7.43;;;;;;;;;;5036494;28;20338;-82
2023/02/20 06:17:45;;;;;;;13.60;7.05;;;;;;;;;;5037752;28;20072;-82
2023/02/20 06:20:11;;;;;;;14.98;7.72;;;;;;;;;;5034611;28;20064;-81
2023/02/20 06:22:38;;;;;;;15.25;7.53;;;;;;;;;;5033894;28;20076;-82
2023/02/20 06:25:05;;;;;;;14.32;7.30;;;;;;;;;;5033516;28;20047;-82
2023/02/20 06:27:31;;;;;;;13.52;7.13;;;;;;;;;;5049816;28;20460;-80
2023/02/20 06:29:57;;;;;;;15.55;7.15;;;;;;;;;;5054961;28;20061;-80
2023/02/20 06:32:24;;;;;;;15.00;7.03;;;;;;;;;;5053800;28;20135;-81
2023/02/20 06:34:50;;;;;;;15.18;7.35;;;;;;;;;;5053766;28;20052;-81
2023/02/20 06:37:17;;;;;;;13.18;6.72;;;;;;;;;;5053151;28;20059;-82
2023/02/20 06:39:45;;;;;;;12.70;6.72;;;;;;;;;;5052775;28;20055;-83
2023/02/20 06:42:12;;;;;;;14.27;7.35;;;;;;;;;;5034873;28;20485;-82
2023/02/20 06:44:38;;;;;;;14.98;7.40;;;;;;;;;;5053291;28;20045;-84
2023/02/20 06:47:07;;;;;;;16.52;7.53;;;;;;;;;;5032073;28;20052;-81
2023/02/20 06:49:37;;;;;;;15.93;6.78;;;;;;;;;;5052282;28;20040;-83
2023/02/20 06:52:05;;;;;;;14.13;6.80;;;;;;;;;;5034923;28;20136;-81
2023/02/20 06:54:32;;;;;;;15.05;7.70;;;;;;;;;;5034561;28;20345;-81
2023/02/20 06:56:59;;;;;;;13.07;6.47;;;;;;;;;;5052695;28;20454;-81
2023/02/20 06:59:25;;;;;;;11.55;6.47;;;;;;;;;;5052734;28;20413;-82
2023/02/20 07:01:52;;;;;;;13.35;6.78;;;;;;;;;;5053044;28;20048;-82
2023/02/20 07:04:19;;;;;;;15.32;7.10;;;;;;;;;;5051826;28;20291;-82
2023/02/20 07:06:46;;;;;;;12.77;6.75;;;;;;;;;;5057014;28;20136;-81
2023/02/20 07:09:13;;;;;;;13.93;7.15;;;;;;;;;;5043913;28;20254;-80
2023/02/20 07:11:39;;;;;;;15.82;7.50;;;;;;;;;;5037868;28;20087;-82
2023/02/20 07:14:06;;;;;;;15.95;8.23;;;;;;;;;;5054702;28;20136;-83
2023/02/20 07:16:32;;;;;;;15.80;7.63;;;;;;;;;;5052680;28;20117;-82
2023/02/20 07:18:59;;;;;;;15.13;7.40;;;;;;;;;;5051734;28;20056;-81
2023/02/20 07:21:25;;;;;;;17.13;8.07;;;;;;;;;;5053513;28;20139;-81
2023/02/20 07:23:52;;;;;;;15.88;8.23;;;;;;;;;;5052198;28;20052;-81
2023/02/20 07:26:19;;;;;;;17.85;8.75;;;;;;;;;;5046941;28;20049;-82
2023/02/20 07:28:46;;;;;;;16.88;8.40;;;;;;;;;;5034797;28;20111;-81
2023/02/20 07:31:13;;;;;;;16.85;8.82;;;;;;;;;;5037076;28;20052;-82
2023/02/20 07:33:41;;;;;;;16.75;9.07;;;;;;;;;;5035308;28;20379;-81
2023/02/20 07:36:12;;;;;;;18.30;8.85;;;;;;;;;;5035202;28;20072;-81
2023/02/20 07:38:38;;;;;;;15.50;8.30;;;;;;;;;;5017885;28;20053;-82
2023/02/20 07:41:05;;;;;;;20.13;9.38;;;;;;;;;;5036561;28;20099;-82
2023/02/20 07:43:31;;;;;;;18.27;9.02;;;;;;;;;;5038007;28;20046;-81
2023/02/20 07:45:58;;;;;;;16.20;8.90;;;;;;;;;;5037149;28;20041;-81
2023/02/20 07:48:24;;;;;;;14.15;8.48;;;;;;;;;;5030402;28;20092;-81
2023/02/20 07:50:51;;;;;;;18.80;8.98;;;;;;;;;;5036773;28;20041;-81
2023/02/20 07:53:19;;;;;;;19.77;8.85;;;;;;;;;;5031791;28;20056;-82
2023/02/20 07:55:45;;;;;;;17.88;8.07;;;;;;;;;;5014041;28;20529;-82
2023/02/20 07:58:11;;;;;;;18.98;8.57;;;;;;;;;;5031747;28;20051;-82
2023/02/20 08:00:38;;;;;;;16.35;8.20;;;;;;;;;;5014955;28;20064;-83
2023/02/20 08:03:04;;;;;;;17.65;7.78;;;;;;;;;;5031835;28;20050;-81
2023/02/20 08:05:30;;;;;;;15.93;7.32;;;;;;;;;;5035835;28;20069;-81
2023/02/20 08:08:12;;;;;;;16.42;7.55;;;;;;;;;;5032984;28;20056;-82
2023/02/20 08:10:38;;;;;;;14.15;7.10;;;;;;;;;;5037937;28;20045;-80
2023/02/20 08:13:05;;;;;;;15.90;6.85;;;;;;;;;;5029790;28;20123;-81
2023/02/20 08:15:31;;;;;;;13.27;6.25;;;;;;;;;;5029894;28;20053;-80
2023/02/20 08:17:58;;;;;;;11.85;5.90;;;;;;;;;;5028011;28;20053;-81
2023/02/20 08:20:24;;;;;;;13.40;5.65;;;;;;;;;;5029004;28;20046;-81
2023/02/20 08:22:52;;;;;;;10.52;6.13;;;;;;;;;;5028904;28;20060;-81
2023/02/20 08:25:18;;;;;;;9.30;5.55;;;;;;;;;;5028724;28;20055;-81
2023/02/20 08:27:47;;;;;;;11.85;5.57;;;;;;;;;;5029837;28;20139;-81
2023/02/20 08:30:15;;;;;;;9.13;4.75;;;;;;;;;;5049851;28;20124;-79
2023/02/20 08:32:41;;;;;;;11.75;4.63;;;;;;;;;;5049563;28;20056;-80
2023/02/20 08:35:08;;;;;;;12.85;5.63;;;;;;;;;;5049992;28;20119;-81
2023/02/20 08:37:35;;;;;;;11.63;4.97;;;;;;;;;;5048735;28;20536;-80
2023/02/20 08:40:05;;;;;;;9.23;4.50;;;;;;;;;;5048520;28;20496;-81
2023/02/20 08:42:32;;;;;;;8.35;4.57;;;;;;;;;;5031962;28;20099;-81
2023/02/20 08:44:59;;;;;;;10.65;4.78;;;;;;;;;;5049897;28;20139;-80
2023/02/20 08:47:26;;;;;;;9.52;4.35;;;;;;;;;;5047430;28;20055;-80
2023/02/20 08:49:52;;;;;;;7.68;4.22;;;;;;;;;;5049467;28;20064;-80
2023/02/20 08:52:18;;;;;;;8.05;4.20;;;;;;;;;;5049376;28;20049;-81
2023/02/20 08:54:46;;;;;;;9.45;4.43;;;;;;;;;;5049183;28;20049;-80
2023/02/20 08:57:15;;;;;;;9.73;4.07;;;;;;;;;;5049483;28;21772;-81
2023/02/20 08:59:42;;;;;;;7.85;3.90;;;;;;;;;;5051095;28;20075;-81
2023/02/20 09:02:18;;;;;;;7.82;4.00;;;;;;;;;;5051105;28;20053;-81
2023/02/20 09:04:45;;;;;;;9.27;3.70;;;;;;;;;;5050554;28;20049;-81
2023/02/20 09:07:12;;;;;;;9.63;4.22;;;;;;;;;;5050111;28;20045;-81
2023/02/20 09:09:38;;;;;;;5.88;3.42;;;;;;;;;;5032292;28;20048;-82
2023/02/20 09:12:05;;;;;;;9.70;4.93;;;;;;;;;;5052244;28;20084;-80
2023/02/20 09:14:32;;;;;;;9.38;4.15;;;;;;;;;;5046563;28;20136;-80
2023/02/20 09:16:59;;;;;;;7.85;3.63;;;;;;;;;;5062985;28;20128;-79
2023/02/20 09:19:25;;;;;;;7.85;3.78;;;;;;;;;;5061734;28;20462;-79
2023/02/20 09:21:52;;;;;;;8.40;3.75;;;;;;;;;;5042800;28;20045;-79
2023/02/20 09:24:18;;;;;;;8.05;3.88;;;;;;;;;;5052672;28;20866;-80
2023/02/20 09:26:45;;;;;;;7.72;3.58;;;;;;;;;;5043278;28;20494;-80
2023/02/20 09:29:11;;;;;;;8.52;3.90;;;;;;;;;;5034916;28;20078;-79
2023/02/20 09:31:37;;;;;;;7.82;3.53;;;;;;;;;;5034916;28;20132;-81
2023/02/20 09:34:04;;;;;;;5.40;3.22;;;;;;;;;;5033647;28;20046;-83
2023/02/20 09:36:30;;;;;;;10.07;3.55;;;;;;;;;;5034052;28;20457;-81
2023/02/20 09:38:57;;;;;;;8.18;3.55;;;;;;;;;;5033924;28;20057;-80
2023/02/20 09:41:29;;;;;;;6.43;3.72;;;;;;;;;;5034031;28;20045;-80
2023/02/20 09:44:02;;;;;;;5.65;3.20;;;;;;;;;;5035112;28;20137;-80
2023/02/20 09:46:28;;;;;;;7.00;3.00;;;;;;;;;;5034801;28;20422;-81
2023/02/20 09:49:27;;;;;;;7.60;3.50;;;;;;;;;;5033345;28;20073;-81
2023/02/20 09:51:59;;;;;;;6.00;3.47;;;;;;;;;;4984740;28;20056;-79
2023/02/20 09:54:36;;;;;;;8.40;3.20;;;;;;;;;;5033959;28;20469;-80
2023/02/20 09:57:05;;;;;;;7.45;2.92;;;;;;;;;;5034985;28;20092;-80
2023/02/20 09:59:31;;;;;;;10.23;3.38;;;;;;;;;;5036372;28;20077;-81
2023/02/20 10:02:02;;;;;;;5.72;2.50;;;;;;;;;;5039222;28;20502;-80
2023/02/20 10:05:03;;;;;;;7.78;2.80;;;;;;;;;;5034173;28;20181;-79
2023/02/20 10:07:31;;;;;;;5.55;2.67;;;;;;;;;;5018625;28;20104;-79
2023/02/20 10:09:59;;;;;;;8.98;2.83;;;;;;;;;;5032946;28;20121;-80
2023/02/20 10:12:34;;;;;;;5.47;2.72;;;;;;;;;;5033674;28;20152;-80
2023/02/20 10:15:07;;;;;;;6.22;2.60;;;;;;;;;;5033779;28;20050;-80
2023/02/20 10:17:42;;;;;;;3.92;2.10;;;;;;;;;;5032128;28;20092;-80
2023/02/20 10:20:19;;;;;;;5.97;2.40;;;;;;;;;;5032261;28;20060;-81
2023/02/20 10:22:54;;;;;;;5.40;2.80;;;;;;;;;;5032273;28;20131;-81
2023/02/20 10:25:28;;;;;;;4.25;2.40;;;;;;;;;;5032646;28;20069;-80
2023/02/20 10:28:06;;;;;;;6.10;2.55;;;;;;;;;;5052252;28;20128;-80
2023/02/20 10:30:35;;;;;;;8.90;2.70;;;;;;;;;;5035545;28;20100;-80
2023/02/20 10:33:13;;;;;;;4.82;2.30;;;;;;;;;;5053119;28;20148;-81
2023/02/20 10:35:42;;;;;;;7.13;2.60;;;;;;;;;;5035980;28;20117;-80
2023/02/20 10:38:11;;;;;;;7.18;2.53;;;;;;;;;;5054193;28;20098;-81
2023/02/20 10:40:48;;;;;;;5.03;2.20;;;;;;;;;;5054824;28;20063;-80
2023/02/20 10:43:23;;;;;;;4.60;1.90;;;;;;;;;;5041958;28;20056;-79
2023/02/20 10:45:57;;;;;;;4.53;2.15;;;;;;;;;;5054607;28;20045;-81
2023/02/20 10:48:25;;;;;;;5.97;2.25;;;;;;;;;;5051226;28;20049;-81
2023/02/20 10:50:54;;;;;;;6.93;2.28;;;;;;;;;;5052163;28;20059;-80
2023/02/20 10:53:33;;;;;;;4.53;2.20;;;;;;;;;;5051785;28;20099;-80
2023/02/20 10:56:09;;;;;;;4.35;2.05;;;;;;;;;;5052586;28;20057;-81
2023/02/20 10:58:59;;;;;;;5.85;2.15;;;;;;;;;;5052746;28;20116;-82
2023/02/20 11:01:26;;;;;;;6.05;1.95;;;;;;;;;;5053224;28;20076;-80
2023/02/20 11:04:01;;;;;;;2.20;1.35;;;;;;;;;;5033912;28;20044;-81
2023/02/20 11:06:39;;;;;;;5.20;1.67;;;;;;;;;;5052153;28;20049;-80
2023/02/20 11:09:07;;;;;;;3.70;1.95;;;;;;;;;;5052884;28;20041;-81
2023/02/20 11:11:35;;;;;;;4.18;1.38;;;;;;;;;;5053206;28;20045;-81
2023/02/20 11:14:08;;;;;;;4.22;1.80;;;;;;;;;;5040363;28;20116;-79
2023/02/20 11:16:38;;;;;;;4.85;1.70;;;;;;;;;;5046471;28;20083;-81
2023/02/20 11:19:07;;;;;;;5.78;1.95;;;;;;;;;;5063338;28;20412;-80
2023/02/20 11:21:39;;;;;;;4.40;1.70;;;;;;;;;;5048107;28;20083;-79
2023/02/20 11:24:19;;;;;;;2.13;1.30;;;;;;;;;;5058369;28;20099;-81
2023/02/20 11:26:47;;;;;;;3.53;1.42;;;;;;;;;;5041417;28;20248;-80
2023/02/20 11:29:15;;;;;;;4.25;1.55;;;;;;;;;;5031918;28;20087;-80
2023/02/20 11:31:46;;;;;;;3.42;1.35;;;;;;;;;;5032549;28;20056;-80
2023/02/20 11:34:25;;;;;;;7.20;1.30;;;;;;;;;;5031519;28;20046;-82
2023/02/20 11:36:52;;;;;;;4.45;1.60;;;;;;;;;;5030863;28;20061;-81
2023/02/20 11:39:21;;;;;;;5.60;1.60;;;;;;;;;;5030969;28;20449;-81
2023/02/20 11:41:49;;;;;;;3.10;1.50;;;;;;;;;;5031950;28;20050;-82
2023/02/20 11:44:15;;;;;;;5.20;1.38;;;;;;;;;;5032308;28;20079;-82
2023/02/20 11:46:42;;;;;;;3.88;1.23;;;;;;;;;;5012852;28;20133;-80
2023/02/20 11:49:10;;;;;;;4.10;1.33;;;;;;;;;;5031077;28;20052;-80
2023/02/20 11:51:44;;;;;;;4.38;1.60;;;;;;;;;;5032640;28;20045;-81
2023/02/20 11:54:16;;;;;;;4.55;1.33;;;;;;;;;;5035209;28;20119;-80
2023/02/20 11:56:57;;;;;;;4.45;1.20;;;;;;;;;;5031347;28;20053;-80
2023/02/20 11:59:25;;;;;;;2.95;1.30;;;;;;;;;;5031733;28;20144;-80
2023/02/20 12:01:52;;;;;;;4.88;1.60;;;;;;;;;;5032084;28;20069;-81
2023/02/20 12:04:26;;;;;;;4.25;1.30;;;;;;;;;;5014491;28;20054;-80
2023/02/20 12:06:53;;;;;;;7.18;1.52;;;;;;;;;;5031830;28;20077;-80
2023/02/20 12:09:21;;;;;;;5.63;1.60;;;;;;;;;;5031175;28;20055;-78
2023/02/20 12:11:49;;;;;;;5.05;1.52;;;;;;;;;;5032799;28;20557;-80
2023/02/20 12:14:16;;;;;;;4.80;1.50;;;;;;;;;;5033255;28;20053;-80
2023/02/20 12:16:42;;;;;;;3.63;1.50;;;;;;;;;;5031740;28;20064;-81
2023/02/20 12:19:16;;;;;;;5.13;1.25;;;;;;;;;;5030552;28;20053;-81
2023/02/20 12:21:46;;;;;;;3.47;1.33;;;;;;;;;;5031913;28;20055;-81
2023/02/20 12:24:22;;;;;;;3.20;1.20;;;;;;;;;;5030982;28;20080;-81
2023/02/20 12:26:53;;;;;;;2.05;1.27;;;;;;;;;;5041872;28;20049;-81
2023/02/20 12:29:39;;;;;;;7.82;1.40;;;;;;;;;;5053271;28;20045;-81
2023/02/20 12:32:11;;;;;;;4.43;1.30;;;;;;;;;;5051580;28;20585;-81
2023/02/20 12:34:58;;;;;;;4.70;1.52;;;;;;;;;;5050861;28;20049;-80
2023/02/20 12:37:24;;;;;;;3.72;1.38;;;;;;;;;;5037725;28;20079;-81
2023/02/20 12:39:52;;;;;;;3.70;1.27;;;;;;;;;;5033220;28;20117;-80
2023/02/20 12:42:42;;;;;;;3.13;1.17;;;;;;;;;;5053295;28;20052;-80
2023/02/20 12:45:21;;;;;;;3.22;1.17;;;;;;;;;;5058976;28;20051;-81
2023/02/20 12:47:50;;;;;;;3.08;1.10;;;;;;;;;;5051538;28;20059;-80
2023/02/20 12:50:23;;;;;;;4.45;0.93;;;;;;;;;;5037175;28;20080;-81
2023/02/20 12:52:52;;;;;;;5.50;1.30;;;;;;;;;;5056208;28;20055;-80
2023/02/20 12:55:25;;;;;;;3.22;1.13;;;;;;;;;;5056852;28;20448;-79
2023/02/20 12:58:14;;;;;;;4.03;1.20;;;;;;;;;;5059027;28;20057;-80
2023/02/20 13:00:43;;;;;;;3.13;1.15;;;;;;;;;;5061129;28;20049;-79
2023/02/20 13:03:09;;;;;;;4.65;1.15;;;;;;;;;;5060388;28;20072;-80
2023/02/20 13:05:40;;;;;;;4.32;1.25;;;;;;;;;;5059282;28;20048;-80
2023/02/20 13:08:19;;;;;;;3.67;0.95;;;;;;;;;;5054736;28;20496;-80
2023/02/20 13:10:51;;;;;;;3.17;1.10;;;;;;;;;;5055181;28;20049;-81
2023/02/20 13:13:18;;;;;;;2.15;1.00;;;;;;;;;;5056019;28;20049;-80
2023/02/20 13:15:45;;;;;;;3.40;1.30;;;;;;;;;;5060059;28;20555;-79
2023/02/20 13:18:15;;;;;;;5.03;1.30;;;;;;;;;;5053626;28;20057;-79
2023/02/20 13:21:00;;;;;;;2.95;1.50;;;;;;;;;;5054631;28;20053;-80
2023/02/20 13:23:29;;;;;;;3.53;1.13;;;;;;;;;;5054299;28;20049;-80
2023/02/20 13:25:56;;;;;;;2.35;1.00;;;;;;;;;;5054693;28;20053;-81
2023/02/20 13:28:36;;;;;;;3.08;0.95;;;;;;;;;;5037092;28;20059;-81
2023/02/20 13:31:08;;;;;;;3.63;1.17;;;;;;;;;;5056466;28;20041;-81
2023/02/20 13:33:36;;;;;;;3.30;1.05;;;;;;;;;;5064857;28;20087;-81
2023/02/20 13:36:03;;;;;;;2.40;0.95;;;;;;;;;;5040104;28;20361;-79
2023/02/20 13:38:30;;;;;;;3.50;1.05;;;;;;;;;;5055012;28;20053;-82
2023/02/20 13:40:59;;;;;;;3.45;1.10;;;;;;;;;;5055143;28;20048;-82
2023/02/20 13:43:27;;;;;;;2.80;1.05;;;;;;;;;;5055785;28;20421;-82
2023/02/20 13:45:59;;;;;;;2.58;1.00;;;;;;;;;;5059255;28;20519;-82
2023/02/20 13:48:28;;;;;;;3.22;1.10;;;;;;;;;;5052248;28;20056;-80
2023/02/20 13:51:13;;;;;;;2.67;1.05;;;;;;;;;;5054814;28;20470;-80
2023/02/20 13:53:44;;;;;;;2.97;1.00;;;;;;;;;;5053489;28;20397;-81
2023/02/20 13:56:15;;;;;;;2.58;1.00;;;;;;;;;;5054366;28;20045;-79
2023/02/20 13:58:41;;;;;;;3.92;1.23;;;;;;;;;;5055361;28;20053;-80
2023/02/20 14:01:08;;;;;;;1.80;0.98;;;;;;;;;;5054686;28;20059;-81
2023/02/20 14:03:34;;;;;;;4.78;1.20;;;;;;;;;;5059041;28;20041;-81
2023/02/20 14:06:03;;;;;;;2.67;0.90;;;;;;;;;;5053546;28;20053;-81
2023/02/20 14:08:31;;;;;;;6.15;1.40;;;;;;;;;;5052134;28;20084;-81
2023/02/20 14:11:09;;;;;;;5.63;1.55;;;;;;;;;;5053822;28;20045;-81
2023/02/20 14:13:37;;;;;;;3.80;1.08;;;;;;;;;;5055915;28;20140;-79
2023/02/20 14:16:25;;;;;;;5.72;1.10;;;;;;;;;;5054312;28;20072;-80
2023/02/20 14:18:54;;;;;;;3.30;1.23;;;;;;;;;;5051623;28;20358;-80
2023/02/20 14:21:24;;;;;;;6.28;1.42;;;;;;;;;;5051562;28;20212;-80
2023/02/20 14:23:51;;;;;;;3.25;1.20;;;;;;;;;;5052152;28;20056;-81
2023/02/20 14:26:20;;;;;;;6.10;1.30;;;;;;;;;;5033287;28;20124;-80
2023/02/20 14:28:48;;;;;;;4.22;1.10;;;;;;;;;;5039102;28;20050;-79
2023/02/20 14:31:22;;;;;;;2.97;0.98;;;;;;;;;;5039071;28;20494;-79
2023/02/20 14:33:57;;;;;;;3.33;1.02;;;;;;;;;;5044515;28;20060;-81
2023/02/20 14:36:59;;;;;;;5.68;1.13;;;;;;;;;;5047041;28;20084;-79
2023/02/20 14:39:38;;;;;;;4.90;1.08;;;;;;;;;;4968566;29;20082;-82
2023/02/20 14:42:10;;;;;;;4.15;1.10;;;;;;;;;;5036769;28;20111;-80
2023/02/20 14:44:36;;;;;;;4.10;1.20;;;;;;;;;;5032990;28;20091;-80
2023/02/20 14:47:12;;;;;;;3.70;1.10;;;;;;;;;;5031439;28;20054;-81
2023/02/20 14:49:39;;;;;;;5.03;1.17;;;;;;;;;;5032273;28;20050;-81
2023/02/20 14:52:15;;;;;;;4.30;1.30;;;;;;;;;;5032701;28;20143;-81
2023/02/20 14:54:43;;;;;;;2.42;1.00;;;;;;;;;;5032335;28;20053;-82
2023/02/20 14:57:13;;;;;;;3.60;1.20;;;;;;;;;;5033056;28;20053;-81
2023/02/20 14:59:40;;;;;;;5.05;1.40;;;;;;;;;;5033860;28;20045;-81
2023/02/20 15:02:16;;;;;;;5.22;1.20;;;;;;;;;;5041394;28;20044;-80